Time;durP1;ratioP1;P1;durP2;ratioP2;P2;SDS_P1;SDS_P2;PMS_P1;PMS_P2;Temp;Humidity;BMP_temperature;BMP_pressure;BME280_temperature;BME280_humidity;BME280_pressure;Samples;Min_cycle;Max_cycle;Signal;HPM_P1;HPM_P2
2022/08/01 00:02:12;;;;;;;0.00;0.00;;;18.80;99.90;;;;;;5037543;28;20053;-70
2022/08/01 00:04:38;;;;;;;0.03;0.03;;;18.70;99.90;;;;;;5032390;28;20042;-69
2022/08/01 00:07:03;;;;;;;0.20;0.20;;;18.80;99.90;;;;;;5046796;28;20149;-70
2022/08/01 00:09:29;;;;;;;0.00;0.00;;;18.70;99.90;;;;;;5044944;28;20045;-70
2022/08/01 00:11:55;;;;;;;0.20;0.20;;;18.70;99.90;;;;;;5031404;28;20056;-70
2022/08/01 00:14:20;;;;;;;0.10;0.10;;;18.70;99.90;;;;;;5040257;28;20079;-70
2022/08/01 00:16:46;;;;;;;0.20;0.20;;;18.70;99.90;;;;;;5046116;28;20113;-70
2022/08/01 00:19:11;;;;;;;0.00;0.00;;;18.70;99.90;;;;;;5031971;28;20140;-70
2022/08/01 00:21:37;;;;;;;0.00;0.00;;;18.70;99.90;;;;;;5046322;28;20126;-70
2022/08/01 00:24:03;;;;;;;0.13;0.13;;;18.70;99.90;;;;;;5045130;28;20041;-70
2022/08/01 00:26:28;;;;;;;0.20;0.20;;;18.70;99.90;;;;;;5036767;28;20053;-69
2022/08/01 00:28:54;;;;;;;0.10;0.10;;;18.70;99.90;;;;;;5042685;28;20041;-70
2022/08/01 00:31:19;;;;;;;0.75;0.47;;;18.70;99.90;;;;;;5045069;28;20033;-70
2022/08/01 00:33:45;;;;;;;0.00;0.00;;;18.70;99.90;;;;;;5048936;28;20091;-70
2022/08/01 00:36:10;;;;;;;0.05;0.05;;;18.60;99.90;;;;;;5040751;28;20088;-70
2022/08/01 00:38:36;;;;;;;0.00;0.00;;;18.60;99.90;;;;;;5029906;28;20140;-70
2022/08/01 00:41:01;;;;;;;0.03;0.03;;;18.60;99.90;;;;;;5036020;28;20048;-70
2022/08/01 00:43:28;;;;;;;0.28;0.10;;;18.60;99.90;;;;;;5043206;28;20048;-70
2022/08/01 00:45:53;;;;;;;0.45;0.45;;;18.60;99.90;;;;;;5036658;28;20048;-70
2022/08/01 00:48:19;;;;;;;0.10;0.10;;;18.60;99.90;;;;;;5045049;28;20116;-70
2022/08/01 00:50:45;;;;;;;0.20;0.20;;;18.60;99.90;;;;;;5038036;28;20072;-70
2022/08/01 00:53:11;;;;;;;0.85;0.63;;;18.60;99.90;;;;;;5046512;28;20032;-70
2022/08/01 00:55:36;;;;;;;0.00;0.00;;;18.60;99.90;;;;;;5046705;28;20049;-69
2022/08/01 00:58:02;;;;;;;0.00;0.00;;;18.60;99.90;;;;;;5029079;28;20041;-70
2022/08/01 01:00:27;;;;;;;0.15;0.15;;;18.50;99.90;;;;;;5041340;28;20448;-70
2022/08/01 01:02:53;;;;;;;0.10;0.10;;;18.50;99.90;;;;;;5052526;28;20130;-70
2022/08/01 01:05:19;;;;;;;0.00;0.00;;;18.50;99.90;;;;;;5045117;28;20431;-70
2022/08/01 01:07:52;;;;;;;0.00;0.00;;;18.50;99.90;;;;;;5033858;28;20057;-70
2022/08/01 01:10:22;;;;;;;;;;;18.50;99.90;;;;;;5029176;28;20045;-70
2022/08/01 01:12:57;;;;;;;0.00;0.00;;;18.50;99.90;;;;;;5046366;28;20421;-70
2022/08/01 01:15:30;;;;;;;0.00;0.00;;;18.50;99.90;;;;;;5031715;28;20037;-70
2022/08/01 01:18:01;;;;;;;0.10;0.10;;;18.50;99.90;;;;;;5045234;28;20051;-70
2022/08/01 01:20:42;;;;;;;0.10;0.10;;;18.50;99.90;;;;;;5031867;28;20053;-70
2022/08/01 01:23:20;;;;;;;0.10;0.10;;;18.40;99.90;;;;;;5034989;28;20051;-70
2022/08/01 01:26:04;;;;;;;0.15;0.15;;;18.40;99.90;;;;;;5047815;28;20056;-69
2022/08/01 01:28:41;;;;;;;0.25;0.25;;;18.40;99.90;;;;;;5032327;28;20408;-70
2022/08/01 01:31:10;;;;;;;1.08;0.45;;;18.30;99.90;;;;;;5056024;28;20048;-70
2022/08/01 01:33:39;;;;;;;0.13;0.13;;;18.40;99.90;;;;;;5026495;28;20132;-70
2022/08/01 01:36:09;;;;;;;0.10;0.10;;;18.40;99.90;;;;;;5031307;28;20525;-70
2022/08/01 01:38:41;;;;;;;0.00;0.00;;;18.40;99.90;;;;;;5044002;28;20048;-70
2022/08/01 01:41:10;;;;;;;0.10;0.10;;;18.40;99.90;;;;;;5061215;28;20098;-70
2022/08/01 01:43:37;;;;;;;0.00;0.00;;;18.40;99.90;;;;;;5036885;28;20107;-70
2022/08/01 01:46:07;;;;;;;0.32;0.32;;;18.40;99.90;;;;;;5047079;28;20069;-70
2022/08/01 01:48:34;;;;;;;0.47;0.30;;;18.30;99.90;;;;;;5045097;28;20174;-69
2022/08/01 01:51:01;;;;;;;1.10;1.00;;;18.30;99.90;;;;;;5036352;28;20040;-70
2022/08/01 01:53:29;;;;;;;0.40;0.30;;;18.30;99.90;;;;;;5035476;28;20033;-70
2022/08/01 01:55:57;;;;;;;0.00;0.00;;;18.30;99.90;;;;;;5046591;28;20129;-70
2022/08/01 01:58:26;;;;;;;0.20;0.20;;;18.20;99.90;;;;;;5040149;28;20346;-70
2022/08/01 02:00:52;;;;;;;0.15;0.15;;;18.20;99.90;;;;;;5043759;28;20049;-70
2022/08/01 02:03:19;;;;;;;0.00;0.00;;;18.20;99.90;;;;;;5044796;28;20045;-69
2022/08/01 02:05:46;;;;;;;0.00;0.00;;;18.10;99.90;;;;;;5046447;28;20037;-70
2022/08/01 02:08:15;;;;;;;0.20;0.20;;;18.10;99.90;;;;;;5051949;28;20049;-70
2022/08/01 02:11:17;;;;;;;0.00;0.00;;;18.20;99.90;;;;;;5029074;28;20798;-70
2022/08/01 02:13:28;;;;;;;0.00;0.00;;;18.20;99.90;;;;;;5045545;28;20041;-70
2022/08/01 02:15:54;;;;;;;0.10;0.10;;;18.20;99.90;;;;;;5036958;28;20073;-70
2022/08/01 02:18:19;;;;;;;0.10;0.10;;;18.20;99.90;;;;;;5031070;28;20104;-71
2022/08/01 02:20:46;;;;;;;1.17;0.15;;;18.20;99.90;;;;;;5044079;28;20400;-71
2022/08/01 02:23:13;;;;;;;1.08;0.25;;;18.10;99.90;;;;;;5032917;28;20041;-71
2022/08/01 02:25:43;;;;;;;0.00;0.00;;;18.10;99.90;;;;;;5026699;28;20319;-68
2022/08/01 02:28:17;;;;;;;0.15;0.15;;;18.20;99.90;;;;;;5039367;28;20045;-69
2022/08/01 02:30:47;;;;;;;0.10;0.10;;;18.20;99.90;;;;;;5047897;28;20099;-68
2022/08/01 02:33:16;;;;;;;0.00;0.00;;;18.10;99.90;;;;;;5026320;28;20072;-68
2022/08/01 02:35:45;;;;;;;0.10;0.10;;;18.10;99.90;;;;;;5039491;28;20134;-68
2022/08/01 02:38:13;;;;;;;0.00;0.00;;;18.10;99.90;;;;;;5025946;28;20126;-68
2022/08/01 02:40:44;;;;;;;0.00;0.00;;;18.10;99.90;;;;;;5026190;28;20060;-68
2022/08/01 02:43:11;;;;;;;0.00;0.00;;;18.10;99.90;;;;;;5044394;28;20053;-69
2022/08/01 02:45:42;;;;;;;0.00;0.00;;;18.10;99.90;;;;;;5029882;28;20455;-68
2022/08/01 02:48:11;;;;;;;0.03;0.03;;;18.10;99.90;;;;;;5030882;28;20497;-68
2022/08/01 02:50:38;;;;;;;0.00;0.00;;;18.00;99.90;;;;;;5034215;28;20182;-68
2022/08/01 02:53:06;;;;;;;0.10;0.10;;;18.00;99.90;;;;;;5049415;28;20526;-68
2022/08/01 02:55:33;;;;;;;0.10;0.10;;;18.00;99.90;;;;;;5047177;28;20037;-68
2022/08/01 02:58:01;;;;;;;0.00;0.00;;;18.00;99.90;;;;;;5049894;28;20067;-69
2022/08/01 03:00:29;;;;;;;0.15;0.15;;;18.00;99.90;;;;;;5036480;28;20143;-68
2022/08/01 03:02:56;;;;;;;0.52;0.52;;;18.00;99.90;;;;;;5048757;28;20382;-68
2022/08/01 03:05:23;;;;;;;0.25;0.22;;;17.90;99.90;;;;;;5047301;28;20127;-68
2022/08/01 03:07:50;;;;;;;1.52;0.15;;;17.90;99.90;;;;;;5050349;28;20061;-68
2022/08/01 03:10:17;;;;;;;3.05;0.98;;;17.90;99.90;;;;;;5033739;28;20041;-68
2022/08/01 03:12:45;;;;;;;0.00;0.00;;;17.90;99.90;;;;;;5042008;28;20057;-69
2022/08/01 03:15:13;;;;;;;0.00;0.00;;;17.90;99.90;;;;;;5049865;28;20214;-68
2022/08/01 03:17:42;;;;;;;0.10;0.10;;;17.90;99.90;;;;;;5040279;28;20200;-68
2022/08/01 03:20:10;;;;;;;0.10;0.10;;;17.90;99.90;;;;;;5031104;28;20041;-68
2022/08/01 03:22:38;;;;;;;0.10;0.10;;;17.80;99.90;;;;;;5030471;28;20045;-68
2022/08/01 03:25:06;;;;;;;0.57;0.57;;;17.90;99.90;;;;;;5030501;28;20041;-68
2022/08/01 03:27:33;;;;;;;0.22;0.22;;;17.80;99.90;;;;;;5040181;28;20084;-68
2022/08/01 03:30:02;;;;;;;0.10;0.10;;;17.80;99.90;;;;;;5049400;28;20045;-68
2022/08/01 03:32:29;;;;;;;0.00;0.00;;;17.80;99.90;;;;;;5040356;28;20049;-69
2022/08/01 03:34:55;;;;;;;0.82;0.82;;;17.80;99.90;;;;;;5035329;28;20045;-69
2022/08/01 03:37:21;;;;;;;0.08;0.08;;;17.80;99.90;;;;;;5040908;28;20091;-68
2022/08/01 03:40:00;;;;;;;0.00;0.00;;;17.80;99.90;;;;;;5039166;28;20045;-68
2022/08/01 03:42:36;;;;;;;0.00;0.00;;;17.70;99.90;;;;;;5057358;28;20056;-68
2022/08/01 03:45:09;;;;;;;0.08;0.08;;;17.70;99.90;;;;;;5031753;28;20175;-68
2022/08/01 03:47:35;;;;;;;1.55;0.57;;;17.80;99.90;;;;;;5048389;28;20045;-69
2022/08/01 03:50:06;;;;;;;1.35;0.70;;;17.70;99.90;;;;;;5064748;28;20102;-69
2022/08/01 03:52:33;;;;;;;0.05;0.05;;;17.70;99.90;;;;;;5033040;28;20128;-68
2022/08/01 03:55:06;;;;;;;0.00;0.00;;;17.70;99.90;;;;;;5029646;28;20081;-68
2022/08/01 03:57:32;;;;;;;0.28;0.28;;;17.60;99.90;;;;;;5046556;28;20090;-68
2022/08/01 03:59:58;;;;;;;0.10;0.10;;;17.60;99.90;;;;;;5029258;28;20050;-68
2022/08/01 04:02:26;;;;;;;0.00;0.00;;;17.60;99.90;;;;;;5028880;28;20049;-68
2022/08/01 04:04:52;;;;;;;0.00;0.00;;;17.60;99.90;;;;;;5035908;28;20037;-68
2022/08/01 04:07:27;;;;;;;0.00;0.00;;;17.50;99.90;;;;;;5047850;28;20037;-68
2022/08/01 04:09:52;;;;;;;0.00;0.00;;;17.50;99.90;;;;;;5037358;28;20566;-68
2022/08/01 04:12:18;;;;;;;0.52;0.52;;;17.50;99.90;;;;;;5046809;28;20045;-68
2022/08/01 04:14:44;;;;;;;0.00;0.00;;;17.50;99.90;;;;;;5049541;28;20049;-68
2022/08/01 04:17:10;;;;;;;15.75;0.55;;;17.50;99.90;;;;;;5050016;28;20041;-68
2022/08/01 04:19:36;;;;;;;1.25;1.10;;;17.50;99.90;;;;;;5041277;28;20052;-68
2022/08/01 04:22:02;;;;;;;0.00;0.00;;;17.40;99.90;;;;;;5048007;28;20052;-68
2022/08/01 04:24:29;;;;;;;0.38;0.38;;;17.40;99.90;;;;;;5031851;28;20045;-68
2022/08/01 04:26:57;;;;;;;0.00;0.00;;;17.40;99.90;;;;;;5040713;28;20095;-68
2022/08/01 04:29:24;;;;;;;0.63;0.63;;;17.40;99.90;;;;;;5036150;28;20535;-68
2022/08/01 04:31:54;;;;;;;2.97;0.20;;;17.40;99.90;;;;;;5039664;28;20070;-69
2022/08/01 04:34:22;;;;;;;0.00;0.00;;;17.40;99.90;;;;;;5044193;28;20033;-68
2022/08/01 04:36:49;;;;;;;0.00;0.00;;;17.40;99.90;;;;;;5029065;28;20045;-68
2022/08/01 04:39:17;;;;;;;0.00;0.00;;;17.40;99.90;;;;;;5046756;28;20045;-68
2022/08/01 04:41:46;;;;;;;0.13;0.13;;;17.40;99.90;;;;;;5034759;28;20060;-68
2022/08/01 04:44:12;;;;;;;5.47;0.90;;;17.40;99.90;;;;;;5037442;28;20036;-68
2022/08/01 04:46:39;;;;;;;12.60;0.70;;;17.40;99.90;;;;;;5031134;28;20208;-68
2022/08/01 04:49:07;;;;;;;0.17;0.17;;;17.40;99.90;;;;;;5031697;28;20037;-68
2022/08/01 04:51:32;;;;;;;0.10;0.10;;;17.40;99.90;;;;;;5027642;28;20112;-68
2022/08/01 04:53:58;;;;;;;0.20;0.20;;;17.40;99.90;;;;;;5028617;28;20778;-68
2022/08/01 04:56:24;;;;;;;0.10;0.10;;;17.30;99.90;;;;;;5040594;28;20049;-68
2022/08/01 04:59:39;;;;;;;0.20;0.20;;;17.40;99.90;;;;;;5039537;28;20401;-68
2022/08/01 05:01:35;;;;;;;0.20;0.20;;;17.30;99.90;;;;;;5041666;28;20052;-69
2022/08/01 05:04:00;;;;;;;0.03;0.03;;;17.40;99.90;;;;;;5038143;28;20044;-68
2022/08/01 05:06:26;;;;;;;2.85;0.47;;;17.30;99.90;;;;;;5030555;28;20504;-68
2022/08/01 05:08:51;;;;;;;32.30;1.08;;;17.40;99.90;;;;;;5031983;28;20044;-68
2022/08/01 05:11:17;;;;;;;0.00;0.00;;;17.30;99.90;;;;;;5032750;28;20104;-68
2022/08/01 05:13:42;;;;;;;0.00;0.00;;;17.40;99.90;;;;;;5037052;28;20037;-68
2022/08/01 05:16:08;;;;;;;0.00;0.00;;;17.30;99.90;;;;;;5028309;28;20040;-68
2022/08/01 05:18:34;;;;;;;0.10;0.10;;;17.30;99.90;;;;;;5043028;28;20041;-69
2022/08/01 05:21:00;;;;;;;0.00;0.00;;;17.30;99.90;;;;;;5047001;28;20052;-68
2022/08/01 05:23:25;;;;;;;0.45;0.45;;;17.40;99.90;;;;;;5047085;28;20045;-69
2022/08/01 05:25:51;;;;;;;0.00;0.00;;;17.40;99.90;;;;;;5035561;28;20044;-67
2022/08/01 05:28:17;;;;;;;0.00;0.00;;;17.30;99.90;;;;;;5040960;28;20419;-69
2022/08/01 05:30:42;;;;;;;0.00;0.00;;;17.40;99.90;;;;;;5044889;28;20545;-69
2022/08/01 05:33:08;;;;;;;0.25;0.25;;;17.40;99.90;;;;;;5037953;28;20401;-68
2022/08/01 05:35:33;;;;;;;0.20;0.20;;;17.40;99.90;;;;;;5035086;28;20081;-68
2022/08/01 05:37:59;;;;;;;0.10;0.10;;;17.40;99.90;;;;;;5041261;28;20083;-68
2022/08/01 05:40:24;;;;;;;4.95;0.47;;;17.40;99.90;;;;;;5038420;28;20049;-69
2022/08/01 05:42:50;;;;;;;0.00;0.00;;;17.40;99.90;;;;;;5032387;28;20072;-69
2022/08/01 05:45:15;;;;;;;0.10;0.10;;;17.40;99.90;;;;;;5043818;28;20049;-68
2022/08/01 05:47:41;;;;;;;0.00;0.00;;;17.40;99.90;;;;;;5059570;28;20544;-68
2022/08/01 05:50:07;;;;;;;0.10;0.10;;;17.50;99.90;;;;;;5045526;28;20098;-69
2022/08/01 05:52:33;;;;;;;0.15;0.15;;;17.50;99.90;;;;;;5033031;28;20125;-68
2022/08/01 05:54:59;;;;;;;0.20;0.20;;;17.40;99.90;;;;;;5044865;28;20173;-69
2022/08/01 05:57:24;;;;;;;0.25;0.25;;;17.50;99.90;;;;;;5034090;28;20052;-68
2022/08/01 05:59:50;;;;;;;0.10;0.10;;;17.50;99.90;;;;;;5034067;28;20072;-68
2022/08/01 06:02:15;;;;;;;3.63;0.40;;;17.50;99.90;;;;;;5025232;28;20669;-69
2022/08/01 06:04:41;;;;;;;0.35;0.35;;;17.60;99.90;;;;;;5037121;28;20045;-69
2022/08/01 06:07:06;;;;;;;0.10;0.08;;;17.60;99.90;;;;;;5032021;28;20053;-69
2022/08/01 06:09:32;;;;;;;0.00;0.00;;;17.60;99.90;;;;;;5033338;28;20037;-69
2022/08/01 06:11:58;;;;;;;1.02;0.73;;;17.60;99.90;;;;;;5039131;28;20124;-69
2022/08/01 06:14:24;;;;;;;0.00;0.00;;;17.60;99.90;;;;;;5045840;28;20099;-69
2022/08/01 06:16:49;;;;;;;0.00;0.00;;;17.60;99.90;;;;;;5050591;28;20461;-69
2022/08/01 06:19:15;;;;;;;0.55;0.55;;;17.60;99.90;;;;;;5049615;28;20433;-69
2022/08/01 06:21:40;;;;;;;0.10;0.10;;;17.60;99.90;;;;;;5036768;28;20596;-69
2022/08/01 06:24:06;;;;;;;0.05;0.05;;;17.50;99.90;;;;;;5041933;28;20048;-69
2022/08/01 06:26:32;;;;;;;8.98;0.95;;;17.50;99.90;;;;;;5051317;28;20056;-69
2022/08/01 06:28:57;;;;;;;0.20;0.20;;;17.50;99.90;;;;;;5049753;28;20033;-68
2022/08/01 06:31:23;;;;;;;0.00;0.00;;;17.40;99.90;;;;;;5039712;28;20152;-68
2022/08/01 06:33:49;;;;;;;0.25;0.25;;;17.40;99.90;;;;;;5034747;28;20041;-68
2022/08/01 06:36:14;;;;;;;0.25;0.25;;;17.40;99.90;;;;;;5030325;28;20558;-68
2022/08/01 06:38:40;;;;;;;0.13;0.13;;;17.40;99.90;;;;;;5042555;28;20051;-69
2022/08/01 06:41:05;;;;;;;2.28;1.13;;;17.40;99.90;;;;;;5039794;28;20049;-69
2022/08/01 06:43:31;;;;;;;3.92;0.45;;;17.40;99.90;;;;;;5039689;28;20037;-69
2022/08/01 06:45:56;;;;;;;0.00;0.00;;;17.50;99.90;;;;;;5052576;28;20055;-69
2022/08/01 06:48:22;;;;;;;0.08;0.08;;;17.50;99.90;;;;;;5048115;28;20037;-69
2022/08/01 06:50:48;;;;;;;0.10;0.10;;;17.50;99.90;;;;;;5043325;28;20138;-69
2022/08/01 06:53:13;;;;;;;0.00;0.00;;;17.60;99.90;;;;;;5047134;28;20056;-68
2022/08/01 06:55:39;;;;;;;0.10;0.10;;;17.60;99.90;;;;;;5054753;28;20037;-68
2022/08/01 06:58:05;;;;;;;0.10;0.10;;;17.60;99.90;;;;;;5052316;28;20036;-69
2022/08/01 07:00:30;;;;;;;0.00;0.00;;;17.60;99.90;;;;;;5040583;28;20049;-69
2022/08/01 07:02:58;;;;;;;0.00;0.00;;;17.70;99.90;;;;;;5041736;28;20087;-69
2022/08/01 07:05:24;;;;;;;0.00;0.00;;;17.60;99.90;;;;;;5051483;28;20127;-69
2022/08/01 07:07:50;;;;;;;0.00;0.00;;;17.70;99.90;;;;;;5063578;28;20137;-69
2022/08/01 07:10:16;;;;;;;0.10;0.10;;;17.70;99.90;;;;;;5042486;28;20037;-68
2022/08/01 07:12:42;;;;;;;0.15;0.15;;;17.80;99.90;;;;;;5057005;28;20111;-68
2022/08/01 07:15:09;;;;;;;0.00;0.00;;;17.90;99.90;;;;;;5053218;28;20488;-69
2022/08/01 07:17:42;;;;;;;0.10;0.10;;;17.90;99.90;;;;;;5039187;28;20055;-69
2022/08/01 07:20:09;;;;;;;0.00;0.00;;;17.90;99.90;;;;;;5048589;28;20060;-69
2022/08/01 07:22:35;;;;;;;0.00;0.00;;;17.90;99.90;;;;;;5041170;28;20463;-67
2022/08/01 07:25:01;;;;;;;0.55;0.55;;;17.90;99.90;;;;;;5050882;28;20131;-68
2022/08/01 07:27:27;;;;;;;0.15;0.15;;;18.00;99.90;;;;;;5036683;28;20132;-68
2022/08/01 07:29:52;;;;;;;0.00;0.00;;;18.00;99.90;;;;;;5039230;28;20162;-68
2022/08/01 07:32:18;;;;;;;0.00;0.00;;;18.00;99.90;;;;;;5048236;28;20123;-68
2022/08/01 07:34:43;;;;;;;0.43;0.43;;;18.10;99.90;;;;;;5041814;28;20036;-68
2022/08/01 07:37:09;;;;;;;1.17;0.75;;;18.10;99.90;;;;;;5050596;28;20066;-68
2022/08/01 07:39:34;;;;;;;0.00;0.00;;;18.20;99.90;;;;;;5047694;28;20057;-69
2022/08/01 07:42:00;;;;;;;0.05;0.05;;;18.10;99.90;;;;;;5044541;28;20048;-68
2022/08/01 07:44:25;;;;;;;0.00;0.00;;;18.20;99.90;;;;;;5049122;28;20041;-68
2022/08/01 07:46:51;;;;;;;0.00;0.00;;;18.20;99.90;;;;;;5053305;28;20124;-68
2022/08/01 07:49:16;;;;;;;0.10;0.10;;;18.10;99.90;;;;;;5041747;28;20037;-70
2022/08/01 07:51:42;;;;;;;3.95;1.85;;;18.20;99.90;;;;;;5038539;28;20049;-70
2022/08/01 07:54:07;;;;;;;0.10;0.10;;;18.30;99.90;;;;;;5046430;28;20052;-70
2022/08/01 07:56:33;;;;;;;1.30;1.08;;;18.30;99.90;;;;;;5046527;28;20033;-71
2022/08/01 07:58:59;;;;;;;0.08;0.08;;;18.40;99.90;;;;;;5005601;28;1043265;-70
2022/08/01 08:01:24;;;;;;;0.10;0.10;;;18.40;99.90;;;;;;5048082;28;20059;-70
2022/08/01 08:03:50;;;;;;;0.10;0.10;;;18.50;99.90;;;;;;5049117;28;20055;-70
2022/08/01 08:06:15;;;;;;;0.00;0.00;;;18.50;99.90;;;;;;5046618;28;20076;-70
2022/08/01 08:08:41;;;;;;;0.52;0.52;;;18.50;99.90;;;;;;5048396;28;20099;-69
2022/08/01 08:11:06;;;;;;;0.30;0.30;;;18.40;99.90;;;;;;5039231;28;20053;-70
2022/08/01 08:13:32;;;;;;;0.00;0.00;;;18.50;99.90;;;;;;5044634;28;20515;-70
2022/08/01 08:15:59;;;;;;;0.98;0.63;;;18.50;99.90;;;;;;5041191;28;20500;-69
2022/08/01 08:18:25;;;;;;;0.10;0.10;;;18.40;99.90;;;;;;5042424;28;20036;-70
2022/08/01 08:20:50;;;;;;;0.00;0.00;;;18.40;99.90;;;;;;5047022;28;20356;-70
2022/08/01 08:26:00;;;;;;;0.25;0.25;;;18.50;99.90;;;;;;5046803;28;20586;-70
2022/08/01 08:28:26;;;;;;;0.08;0.08;;;18.70;99.90;;;;;;5047181;28;20048;-69
2022/08/01 08:30:52;;;;;;;0.00;0.00;;;18.70;99.90;;;;;;5046357;28;20119;-70
2022/08/01 08:33:18;;;;;;;0.00;0.00;;;18.70;99.90;;;;;;5037564;28;20055;-70
2022/08/01 08:35:44;;;;;;;0.00;0.00;;;18.80;99.90;;;;;;5042216;28;20045;-70
2022/08/01 08:38:09;;;;;;;10.23;0.85;;;18.80;99.90;;;;;;5036564;28;20044;-69
2022/08/01 08:40:36;;;;;;;0.00;0.00;;;18.80;99.90;;;;;;5040254;28;20461;-69
2022/08/01 08:43:04;;;;;;;0.08;0.08;;;18.90;99.90;;;;;;5044230;28;20124;-71
2022/08/01 08:45:30;;;;;;;0.30;0.30;;;18.80;99.90;;;;;;5039882;28;20049;-70
2022/08/01 08:47:57;;;;;;;0.00;0.00;;;18.80;99.90;;;;;;5038274;28;20124;-70
2022/08/01 08:50:23;;;;;;;0.10;0.10;;;19.00;99.90;;;;;;5045445;28;20037;-70
2022/08/01 08:52:51;;;;;;;0.00;0.00;;;19.10;99.90;;;;;;5047819;28;20064;-70
2022/08/01 08:55:17;;;;;;;0.00;0.00;;;19.10;99.90;;;;;;5040202;28;20136;-71
2022/08/01 08:57:44;;;;;;;0.10;0.10;;;19.30;99.90;;;;;;5045835;28;20048;-70
2022/08/01 09:00:11;;;;;;;0.00;0.00;;;19.30;99.90;;;;;;5048051;28;20211;-70
2022/08/01 09:02:42;;;;;;;0.00;0.00;;;19.40;99.90;;;;;;5037389;28;20102;-70
2022/08/01 09:05:08;;;;;;;0.43;0.43;;;19.40;99.90;;;;;;5053152;28;20431;-70
2022/08/01 09:07:33;;;;;;;0.00;0.00;;;19.40;99.90;;;;;;5046907;28;20567;-70
2022/08/01 09:09:59;;;;;;;0.00;0.00;;;19.30;99.90;;;;;;5042163;28;20060;-70
2022/08/01 09:12:24;;;;;;;0.00;0.00;;;19.40;99.90;;;;;;5035978;28;20484;-70
2022/08/01 09:14:53;;;;;;;0.00;0.00;;;19.40;99.90;;;;;;5035556;28;20136;-70
2022/08/01 09:17:19;;;;;;;0.00;0.00;;;19.30;99.90;;;;;;5031698;28;20403;-70
2022/08/01 09:19:48;;;;;;;0.20;0.20;;;19.50;99.90;;;;;;5039275;28;20075;-70
2022/08/01 09:22:18;;;;;;;0.00;0.00;;;19.70;99.90;;;;;;5033799;28;20045;-70
2022/08/01 09:25:05;;;;;;;12.98;1.60;;;19.70;99.90;;;;;;5037895;28;20484;-70
2022/08/01 09:27:31;;;;;;;0.10;0.10;;;19.80;99.90;;;;;;5038762;28;20049;-70
2022/08/01 09:30:17;;;;;;;0.10;0.10;;;19.90;99.90;;;;;;5039196;28;20580;-70
2022/08/01 09:33:03;;;;;;;3.63;0.68;;;19.90;99.90;;;;;;5040059;28;20059;-69
2022/08/01 09:35:33;;;;;;;0.10;0.10;;;20.00;99.90;;;;;;5038583;28;20072;-70
2022/08/01 09:38:20;;;;;;;0.20;0.20;;;20.10;99.90;;;;;;5033988;28;20572;-70
2022/08/01 09:40:47;;;;;;;0.00;0.00;;;20.10;99.90;;;;;;5048890;28;20545;-69
2022/08/01 09:43:13;;;;;;;0.00;0.00;;;20.30;99.90;;;;;;5038760;28;20045;-69
2022/08/01 09:45:38;;;;;;;0.00;0.00;;;20.40;99.90;;;;;;5036807;28;20190;-70
2022/08/01 09:48:08;;;;;;;0.00;0.00;;;20.40;99.90;;;;;;5038377;28;20497;-70
2022/08/01 09:50:45;;;;;;;4.38;1.20;;;20.60;99.90;;;;;;5031763;28;20053;-69
2022/08/01 09:53:12;;;;;;;5.68;1.10;;;20.90;99.90;;;;;;5041599;28;20052;-70
2022/08/01 09:55:39;;;;;;;0.00;0.00;;;21.50;99.90;;;;;;5034576;28;20050;-69
2022/08/01 09:58:06;;;;;;;0.15;0.15;;;21.20;99.90;;;;;;5055124;28;20091;-69
2022/08/01 10:00:33;;;;;;;0.00;0.00;;;20.90;99.90;;;;;;5051344;28;20056;-69
2022/08/01 10:02:59;;;;;;;0.00;0.00;;;20.80;99.90;;;;;;5038491;28;20052;-69
2022/08/01 10:05:33;;;;;;;0.00;0.00;;;21.20;99.90;;;;;;5052229;28;20100;-69
2022/08/01 10:08:01;;;;;;;0.15;0.15;;;21.70;99.90;;;;;;5044305;28;20052;-69
2022/08/01 10:10:27;;;;;;;0.43;0.43;;;21.90;99.90;;;;;;5038531;28;20059;-69
2022/08/01 10:12:54;;;;;;;0.05;0.05;;;22.00;99.90;;;;;;5036255;28;20041;-69
2022/08/01 10:15:21;;;;;;;0.00;0.00;;;22.20;99.90;;;;;;5057586;28;20067;-68
2022/08/01 10:17:53;;;;;;;0.00;0.00;;;22.30;99.90;;;;;;5036390;28;20041;-69
2022/08/01 10:20:22;;;;;;;0.47;0.47;;;22.30;99.90;;;;;;5047027;28;20045;-69
2022/08/01 10:22:49;;;;;;;2.28;0.15;;;22.30;99.90;;;;;;5046074;28;20064;-69
2022/08/01 10:25:17;;;;;;;0.40;0.40;;;22.40;99.90;;;;;;5037086;28;20045;-69
2022/08/01 10:27:45;;;;;;;0.75;0.65;;;22.40;99.90;;;;;;5045126;28;20781;-69
2022/08/01 10:30:11;;;;;;;0.00;0.00;;;22.30;99.90;;;;;;5045371;28;20091;-69
2022/08/01 10:32:38;;;;;;;0.00;0.00;;;21.90;99.90;;;;;;5050629;28;20045;-69
2022/08/01 10:35:05;;;;;;;0.00;0.00;;;21.70;99.90;;;;;;5034430;28;20052;-69
2022/08/01 10:37:31;;;;;;;2.30;0.20;;;21.60;99.90;;;;;;5046260;28;20056;-69
2022/08/01 10:39:56;;;;;;;0.00;0.00;;;21.70;99.90;;;;;;5039436;28;20476;-69
2022/08/01 10:42:22;;;;;;;0.00;0.00;;;21.50;99.90;;;;;;5038525;28;20124;-69
2022/08/01 10:44:48;;;;;;;0.00;0.00;;;21.30;99.90;;;;;;5048514;28;20060;-69
2022/08/01 10:47:18;;;;;;;0.10;0.10;;;21.40;99.90;;;;;;5047455;28;20131;-68
2022/08/01 10:50:03;;;;;;;0.00;0.00;;;21.50;99.90;;;;;;5032351;28;20041;-69
2022/08/01 10:52:29;;;;;;;0.10;0.10;;;21.60;99.90;;;;;;5049191;28;20123;-68
2022/08/01 10:55:11;;;;;;;0.17;0.17;;;21.70;99.90;;;;;;5048808;28;20577;-69
2022/08/01 10:57:47;;;;;;;0.10;0.10;;;21.80;99.90;;;;;;5045863;28;20037;-69
2022/08/01 11:00:20;;;;;;;0.00;0.00;;;21.80;99.90;;;;;;5034473;28;20057;-69
2022/08/01 11:03:01;;;;;;;0.68;0.32;;;21.90;99.90;;;;;;5045246;28;20048;-69
2022/08/01 11:05:30;;;;;;;0.00;0.00;;;21.90;99.90;;;;;;5050752;28;20132;-69
2022/08/01 11:08:00;;;;;;;0.00;0.00;;;22.00;99.90;;;;;;5046908;28;20049;-69
2022/08/01 11:10:39;;;;;;;3.40;1.75;;;22.10;99.90;;;;;;5032468;28;20085;-69
2022/08/01 11:13:07;;;;;;;0.00;0.00;;;22.00;99.90;;;;;;5047919;28;20504;-69
2022/08/01 11:15:34;;;;;;;0.00;0.00;;;22.00;99.90;;;;;;5042556;28;20500;-68
2022/08/01 11:18:25;;;;;;;0.00;0.00;;;21.90;99.90;;;;;;5044521;28;20051;-69
2022/08/01 11:20:57;;;;;;;0.70;0.70;;;21.90;99.90;;;;;;5037535;28;20053;-66
2022/08/01 11:23:24;;;;;;;0.00;0.00;;;22.10;99.90;;;;;;5045656;28;20064;-66
2022/08/01 11:25:49;;;;;;;0.00;0.00;;;22.10;99.90;;;;;;5058495;28;20049;-66
2022/08/01 11:28:17;;;;;;;2.03;0.55;;;22.10;99.90;;;;;;5048402;28;20362;-66
2022/08/01 11:30:44;;;;;;;0.30;0.30;;;22.30;99.90;;;;;;5041434;28;20512;-66
2022/08/01 11:33:11;;;;;;;0.00;0.00;;;22.50;99.90;;;;;;5039407;28;20044;-66
2022/08/01 11:35:38;;;;;;;0.00;0.00;;;22.60;99.90;;;;;;5036526;28;20045;-66
2022/08/01 11:38:29;;;;;;;0.00;0.00;;;22.60;99.90;;;;;;5044639;28;20049;-66
2022/08/01 11:41:21;;;;;;;0.00;0.00;;;22.80;99.90;;;;;;5043914;28;20037;-66
2022/08/01 11:44:13;;;;;;;0.00;0.00;;;23.00;99.90;;;;;;5042269;28;20053;-66
2022/08/01 11:46:50;;;;;;;0.00;0.00;;;23.20;99.90;;;;;;5041068;28;20813;-68
2022/08/01 11:49:24;;;;;;;0.30;0.10;;;23.40;99.90;;;;;;5043669;28;20056;-67
2022/08/01 11:52:13;;;;;;;0.00;0.00;;;23.30;99.90;;;;;;5039887;28;20124;-67
2022/08/01 11:54:42;;;;;;;0.00;0.00;;;23.40;99.90;;;;;;5034070;28;20064;-68
2022/08/01 11:57:13;;;;;;;0.00;0.00;;;23.40;99.90;;;;;;5042351;28;20049;-68
2022/08/01 11:59:54;;;;;;;0.00;0.00;;;23.40;99.90;;;;;;5047587;28;20053;-67
2022/08/01 12:02:22;;;;;;;0.17;0.17;;;23.40;99.90;;;;;;5039545;28;20052;-67
2022/08/01 12:04:51;;;;;;;0.25;0.25;;;23.50;99.90;;;;;;5047135;28;20048;-67
2022/08/01 12:07:18;;;;;;;0.40;0.30;;;23.70;99.90;;;;;;5043721;28;20087;-67
2022/08/01 12:09:44;;;;;;;0.00;0.00;;;23.70;99.90;;;;;;5040783;28;20045;-67
2022/08/01 12:12:11;;;;;;;0.40;0.40;;;23.90;99.90;;;;;;5031350;28;20093;-66
2022/08/01 12:14:38;;;;;;;0.00;0.00;;;23.80;99.90;;;;;;5041640;28;20044;-66
2022/08/01 12:17:03;;;;;;;0.00;0.00;;;23.80;99.90;;;;;;5043714;28;20120;-66
2022/08/01 12:19:29;;;;;;;0.30;0.30;;;23.90;99.90;;;;;;5039272;28;20128;-67
2022/08/01 12:22:12;;;;;;;0.10;0.10;;;24.00;99.90;;;;;;5041940;28;20120;-67
2022/08/01 12:24:40;;;;;;;0.00;0.00;;;23.80;99.90;;;;;;5038636;28;20056;-66
2022/08/01 12:27:07;;;;;;;0.00;0.00;;;23.80;99.90;;;;;;5038807;28;20053;-67
2022/08/01 12:29:39;;;;;;;0.05;0.05;;;23.50;99.90;;;;;;5039519;28;20045;-67
2022/08/01 12:32:20;;;;;;;0.10;0.10;;;23.60;99.90;;;;;;5040679;28;20076;-68
2022/08/01 12:34:46;;;;;;;0.00;0.00;;;23.40;99.90;;;;;;5045337;28;20123;-68
2022/08/01 12:37:12;;;;;;;0.00;0.00;;;23.40;99.40;;;;;;5041704;28;20173;-68
2022/08/01 12:39:38;;;;;;;0.40;0.13;;;23.90;99.90;;;;;;5049734;28;20076;-68
2022/08/01 12:42:10;;;;;;;0.10;0.10;;;24.00;99.90;;;;;;5041706;28;20049;-68
2022/08/01 12:44:37;;;;;;;0.00;0.00;;;24.30;99.90;;;;;;5039589;28;20048;-68
2022/08/01 12:47:05;;;;;;;0.00;0.00;;;24.10;99.90;;;;;;5040853;28;20045;-68
2022/08/01 12:49:32;;;;;;;0.00;0.00;;;24.20;98.70;;;;;;5044358;28;20076;-67
2022/08/01 12:51:57;;;;;;;0.55;0.55;;;24.30;99.30;;;;;;5062224;28;20060;-68
2022/08/01 12:54:25;;;;;;;0.10;0.10;;;24.60;99.70;;;;;;5047817;28;20467;-68
2022/08/01 12:56:53;;;;;;;0.52;0.17;;;24.60;99.80;;;;;;5043191;28;20060;-68